Time;durP1;ratioP1;P1;durP2;ratioP2;P2;SDS_P1;SDS_P2;PMS_P1;PMS_P2;Temp;Humidity;BMP_temperature;BMP_pressure;BME280_temperature;BME280_humidity;BME280_pressure;Samples;Min_cycle;Max_cycle;Signal;HPM_P1;HPM_P2
2023/03/28 00:03:51;;;;;;;16.48;10.63;;;;;;;8.76;100.00;99911.22;10418794;28;20120;-82
2023/03/28 00:08:52;;;;;;;13.63;7.43;;;;;;;9.19;100.00;99961.34;10419375;28;20033;-82
2023/03/28 00:14:02;;;;;;;11.05;9.00;;;;;;;9.20;100.00;99963.81;10418948;28;20042;-82
2023/03/28 00:19:06;;;;;;;12.60;8.95;;;;;;;8.99;100.00;99927.25;10400682;28;20056;-83
2023/03/28 00:24:12;;;;;;;13.32;9.50;;;;;;;9.32;100.00;99962.47;10418195;28;20045;-83
2023/03/28 00:29:19;;;;;;;11.27;8.52;;;;;;;9.21;100.00;99924.91;10401530;28;20084;-82
2023/03/28 00:34:20;;;;;;;12.93;8.70;;;;;;;9.48;100.00;99944.88;10418470;28;20128;-82
2023/03/28 00:39:21;;;;;;;9.55;7.30;;;;;;;8.77;100.00;99822.84;10418019;28;20123;-83
2023/03/28 00:44:44;;;;;;;11.45;8.23;;;;;;;9.26;100.00;99931.34;10399987;28;20594;-82
2023/03/28 00:49:48;;;;;;;17.42;10.35;;;;;;;8.33;100.00;99830.31;10417447;28;20037;-83
2023/03/28 00:54:51;;;;;;;30.83;13.55;;;;;;;8.72;100.00;99938.22;10375115;28;20457;-83
2023/03/28 00:59:53;;;;;;;19.17;12.68;;;;;;;8.59;100.00;99923.66;10376355;28;20049;-86
2023/03/28 01:05:03;;;;;;;18.92;11.98;;;;;;;8.59;100.00;99920.19;10372282;28;20077;-85
2023/03/28 01:10:04;;;;;;;20.88;13.90;;;;;;;8.10;100.00;99838.06;10375589;28;20081;-85
2023/03/28 01:15:06;;;;;;;15.90;10.95;;;;;;;7.61;100.00;99745.47;10375754;28;20129;-86
2023/03/28 01:20:31;;;;;;;22.95;14.25;;;;;;;7.91;100.00;99766.00;10376197;28;20048;-85
2023/03/28 01:25:44;;;;;;;20.90;13.95;;;;;;;7.80;100.00;99741.69;10375400;28;20045;-85
2023/03/28 01:31:20;;;;;;;18.40;14.07;;;;;;;8.83;100.00;99908.75;10375580;28;20503;-85
2023/03/28 01:36:56;;;;;;;18.98;14.38;;;;;;;8.56;100.00;99822.56;10340734;28;20050;-85
2023/03/28 01:42:05;;;;;;;28.67;17.77;;;;;;;9.00;100.00;99896.28;10301186;28;20057;-85
2023/03/28 01:47:41;;;;;;;23.73;14.02;;;;;;;9.09;100.00;99887.31;10374018;28;20048;-85
2023/03/28 01:53:07;;;;;;;19.25;12.32;;;;;;;8.55;100.00;99821.72;10395222;28;20513;-86
2023/03/28 01:58:20;;;;;;;21.58;14.48;;;;;;;8.93;100.00;99877.59;10414192;28;20087;-86
2023/03/28 02:03:25;;;;;;;20.52;14.10;;;;;;;8.74;100.00;99856.78;10414285;28;20045;-85
2023/03/28 02:08:29;;;;;;;17.80;13.57;;;;;;;8.72;100.00;99885.25;10413962;28;20045;-85
2023/03/28 02:13:40;;;;;;;18.17;12.25;;;;;;;8.52;100.00;99888.22;10413688;28;20140;-85
2023/03/28 02:18:46;;;;;;;19.30;12.95;;;;;;;8.27;100.00;99886.53;10414239;28;20034;-84
2023/03/28 02:23:51;;;;;;;21.40;13.65;;;;;;;7.34;100.00;99768.53;10396633;28;20488;-81
2023/03/28 02:28:55;;;;;;;20.20;14.63;;;;;;;7.85;100.00;99882.19;10414113;28;20072;-84
2023/03/28 02:33:57;;;;;;;29.05;14.48;;;;;;;7.63;100.00;99865.94;10413809;28;20037;-85
2023/03/28 02:39:23;;;;;;;33.70;14.45;;;;;;;7.49;100.00;99846.22;10413857;28;20570;-84
2023/03/28 02:44:26;;;;;;;25.23;13.77;;;;;;;6.97;100.00;99792.66;10413360;28;20128;-85
2023/03/28 02:49:51;;;;;;;15.00;11.67;;;;;;;7.15;100.00;99838.34;10413389;28;20042;-85
2023/03/28 02:55:14;;;;;;;18.63;11.57;;;;;;;6.87;100.00;99837.69;10414010;28;20066;-85
2023/03/28 03:00:18;;;;;;;30.73;15.53;;;;;;;6.68;100.00;99859.03;10412564;28;20587;-86
2023/03/28 03:05:20;;;;;;;163.00;18.98;;;;;;;6.38;100.00;99830.28;10413328;28;20080;-85
2023/03/28 03:10:21;;;;;;;302.92;19.10;;;;;;;6.61;100.00;99869.34;10413622;28;20559;-85
2023/03/28 03:15:22;;;;;;;267.48;13.98;;;;;;;6.61;100.00;99893.94;10411662;28;20037;-85
2023/03/28 03:20:25;;;;;;;105.22;11.23;;;;;;;6.25;100.00;99773.63;10407567;28;20041;-86
2023/03/28 03:25:27;;;;;;;12.50;7.20;;;;;;;6.69;100.00;99741.88;10408404;28;20115;-86
2023/03/28 03:30:29;;;;;;;23.48;6.45;;;;;;;6.99;100.00;99733.44;10407134;28;20042;-86
2023/03/28 03:35:32;;;;;;;28.80;6.22;;;;;;;7.45;100.00;99770.91;10407295;28;20038;-86
2023/03/28 03:40:33;;;;;;;10.00;4.43;;;;;;;8.12;100.00;99833.44;10377553;28;20084;-81
2023/03/28 03:45:36;;;;;;;7.07;4.40;;;;;;;8.46;100.00;99878.31;10366199;28;20092;-83
2023/03/28 03:50:37;;;;;;;6.20;3.80;;;;;;;8.61;100.00;99874.00;10388972;28;20061;-83
2023/03/28 03:55:39;;;;;;;3.42;2.35;;;;;;;8.58;100.00;99828.50;10408811;28;20106;-85
2023/03/28 04:00:39;;;;;;;3.58;2.42;;;;;;;9.18;100.00;99854.50;10429614;28;20107;-80
2023/03/28 04:05:40;;;;;;;4.22;2.40;;;;;;;9.50;100.00;99832.34;10419318;28;20496;-83
2023/03/28 04:10:41;;;;;;;3.00;2.53;;;;;;;9.45;99.49;99817.94;10409647;28;20083;-85
2023/03/28 04:15:42;;;;;;;4.03;2.70;;;;;;;9.85;99.26;99846.09;10418528;28;20452;-84
2023/03/28 04:20:48;;;;;;;3.72;2.47;;;;;;;10.28;99.98;99827.88;10417795;28;20404;-84
2023/03/28 04:25:49;;;;;;;4.70;3.47;;;;;;;11.17;99.78;99838.63;10430023;28;20144;-82
2023/03/28 04:30:56;;;;;;;33.75;23.25;;;;;;;11.91;95.44;99832.38;10415556;28;20052;-82
2023/03/28 04:36:01;;;;;;;31.52;23.38;;;;;;;12.38;95.50;99841.59;10414043;28;20038;-83
2023/03/28 04:41:04;;;;;;;8.50;6.22;;;;;;;11.76;92.89;99676.22;10416897;28;20099;-81
2023/03/28 04:46:05;;;;;;;5.78;4.53;;;;;;;12.70;91.02;99790.41;10414581;28;20127;-81
2023/03/28 04:51:06;;;;;;;6.85;5.32;;;;;;;12.44;90.20;99769.72;10416951;28;20512;-81
2023/03/28 04:56:07;;;;;;;5.88;4.80;;;;;;;12.48;90.24;99805.63;10417630;28;20191;-85
2023/03/28 05:01:09;;;;;;;6.53;4.35;;;;;;;12.70;89.67;99830.38;10416118;28;20045;-78
2023/03/28 05:06:32;;;;;;;5.00;3.67;;;;;;;12.77;86.18;99825.94;10397950;28;20041;-78
2023/03/28 05:11:32;;;;;;;7.47;4.13;;;;;;;12.49;87.02;99833.91;10417624;28;20408;-78
2023/03/28 05:16:33;;;;;;;6.32;4.30;;;;;;;12.63;87.51;99799.41;10416506;28;20042;-78
2023/03/28 05:21:34;;;;;;;5.43;3.95;;;;;;;12.86;86.75;99791.13;10415221;28;20037;-80
2023/03/28 05:26:35;;;;;;;10.40;5.43;;;;;;;13.10;86.31;99771.13;10415129;28;20045;-78
2023/03/28 05:31:36;;;;;;;9.00;4.57;;;;;;;13.38;85.10;99789.75;10414360;28;20045;-77
2023/03/28 05:36:37;;;;;;;6.55;4.35;;;;;;;12.94;84.61;99708.31;10415420;28;20045;-77
2023/03/28 05:41:38;;;;;;;5.68;4.15;;;;;;;13.39;84.14;99759.38;10415953;28;20083;-76
2023/03/28 05:46:38;;;;;;;8.93;5.75;;;;;;;13.73;83.80;99795.84;10415356;28;20041;-76
2023/03/28 05:51:39;;;;;;;9.60;6.70;;;;;;;13.70;83.06;99775.69;10415050;28;20496;-76
2023/03/28 05:56:40;;;;;;;6.90;5.68;;;;;;;13.91;83.28;99787.25;10414450;28;20055;-76
2023/03/28 06:01:41;;;;;;;7.55;6.05;;;;;;;14.18;82.32;99784.56;10414933;28;20038;-77
2023/03/28 06:06:44;;;;;;;9.30;6.13;;;;;;;14.38;82.37;99772.03;10415147;28;20132;-76
2023/03/28 06:11:44;;;;;;;8.52;5.78;;;;;;;14.80;80.94;99759.25;10394625;28;20037;-77
2023/03/28 06:16:45;;;;;;;6.85;5.82;;;;;;;14.97;79.42;99741.72;10373666;28;20041;-76
2023/03/28 06:21:46;;;;;;;9.10;5.18;;;;;;;14.70;77.26;99646.59;10373302;28;20038;-78
2023/03/28 06:26:47;;;;;;;7.70;4.72;;;;;;;15.17;76.42;99716.75;10372849;28;20493;-77
2023/03/28 06:31:47;;;;;;;7.10;5.40;;;;;;;15.46;75.84;99699.28;10373054;28;20038;-75
2023/03/28 06:36:54;;;;;;;8.55;4.72;;;;;;;15.85;73.02;99708.91;10372539;28;20069;-75
2023/03/28 06:41:55;;;;;;;7.90;4.82;;;;;;;15.79;73.00;99687.53;10372928;28;20052;-75
2023/03/28 06:46:56;;;;;;;8.65;5.97;;;;;;;15.93;73.41;99683.72;10372323;28;20068;-76
2023/03/28 06:51:57;;;;;;;6.20;4.28;;;;;;;15.98;72.34;99623.09;10373020;28;20050;-75
2023/03/28 06:56:57;;;;;;;5.97;4.30;;;;;;;16.48;71.43;99699.91;10372426;28;20133;-75
2023/03/28 07:01:58;;;;;;;6.65;4.93;;;;;;;16.54;71.49;99664.19;10371793;28;20092;-75
2023/03/28 07:06:59;;;;;;;8.38;4.57;;;;;;;17.02;69.89;99692.09;10372304;28;20100;-75
2023/03/28 07:12:00;;;;;;;7.22;4.68;;;;;;;16.61;68.94;99602.41;10372010;28;20037;-75
2023/03/28 07:17:01;;;;;;;7.82;4.93;;;;;;;17.25;68.28;99669.91;10372022;28;20046;-75
2023/03/28 07:22:02;;;;;;;6.05;3.97;;;;;;;17.54;65.93;99641.41;10371656;28;20041;-75
2023/03/28 07:27:04;;;;;;;5.70;4.07;;;;;;;17.53;65.15;99623.66;10371882;28;20522;-75
2023/03/28 07:32:05;;;;;;;6.25;4.22;;;;;;;17.67;65.06;99598.19;10371627;28;20038;-75
2023/03/28 07:37:07;;;;;;;7.53;3.92;;;;;;;18.13;63.51;99625.34;10378114;28;20085;-75
2023/03/28 07:42:12;;;;;;;4.53;3.47;;;;;;;18.13;62.46;99614.59;10379425;28;20045;-75
2023/03/28 07:47:13;;;;;;;4.55;3.67;;;;;;;17.76;63.23;99587.91;10378691;28;20041;-75
2023/03/28 07:52:14;;;;;;;5.55;3.70;;;;;;;17.44;62.85;99539.09;10378965;28;20050;-76
2023/03/28 07:57:15;;;;;;;8.00;3.78;;;;;;;17.58;63.07;99595.03;10378794;28;20042;-75
2023/03/28 08:02:16;;;;;;;5.85;3.28;;;;;;;17.60;63.03;99594.81;10378536;28;20048;-75
2023/03/28 08:20:47;;;;;;;7.50;3.30;;;;;;;17.96;60.59;99545.44;10399760;28;20587;-76
2023/03/28 08:25:48;;;;;;;6.20;3.20;;;;;;;18.00;60.31;99521.59;10400517;28;20140;-76
2023/03/28 08:30:49;;;;;;;6.57;3.55;;;;;;;18.24;60.29;99544.66;10400502;28;20132;-76
2023/03/28 08:35:51;;;;;;;5.00;3.10;;;;;;;18.48;59.16;99545.41;10400603;28;20098;-74
2023/03/28 08:41:05;;;;;;;4.57;3.10;;;;;;;18.37;58.82;99545.47;10399959;28;20033;-78
2023/03/28 08:46:11;;;;;;;5.55;2.80;;;;;;;18.19;58.57;99509.63;10343750;28;20129;-74
2023/03/28 08:51:43;;;;;;;6.43;3.30;;;;;;;18.96;57.75;99535.28;10352457;28;20405;-73
2023/03/28 08:56:50;;;;;;;5.35;3.30;;;;;;;19.07;57.93;99531.72;10362237;28;20054;-75
2023/03/28 09:01:51;;;;;;;5.15;3.30;;;;;;;19.35;56.43;99530.00;10333215;28;20082;-74
2023/03/28 09:07:01;;;;;;;4.35;2.95;;;;;;;19.10;55.64;99508.88;10323184;28;20052;-73
2023/03/28 09:12:19;;;;;;;7.00;2.92;;;;;;;19.33;55.25;99526.75;10347637;28;20042;-74
2023/03/28 09:17:31;;;;;;;7.40;2.83;;;;;;;19.07;55.11;99512.06;10452927;28;20430;-73
2023/03/28 09:22:51;;;;;;;5.13;2.90;;;;;;;18.93;56.48;99512.38;10431342;28;20042;-72
2023/03/28 09:28:10;;;;;;;4.57;2.85;;;;;;;18.70;54.30;99368.03;10434058;28;20142;-72
2023/03/28 09:33:20;;;;;;;4.25;2.83;;;;;;;20.48;53.16;99475.72;10429176;28;20133;-73
2023/03/28 09:38:37;;;;;;;8.15;2.42;;;;;;;20.69;51.16;99455.97;10395516;28;20054;-73
2023/03/28 09:43:46;;;;;;;11.40;2.97;;;;;;;19.88;52.88;99480.16;10330385;28;20046;-73
2023/03/28 09:48:47;;;;;;;3.78;2.67;;;;;;;19.32;53.86;99450.53;10329710;28;20456;-74
2023/03/28 09:53:48;;;;;;;5.32;2.88;;;;;;;19.44;53.19;99439.66;10330333;28;20072;-73
2023/03/28 09:58:53;;;;;;;4.65;2.53;;;;;;;18.82;53.79;99391.38;10330079;28;20042;-73
2023/03/28 10:03:55;;;;;;;6.95;2.70;;;;;;;19.41;52.99;99429.38;10329360;28;20520;-74
2023/03/28 10:09:14;;;;;;;5.50;2.53;;;;;;;19.47;52.99;99443.72;10311778;28;20046;-74
2023/03/28 10:14:38;;;;;;;4.90;2.30;;;;;;;19.51;53.05;99436.78;10297453;28;20047;-74
2023/03/28 10:19:43;;;;;;;5.63;2.60;;;;;;;19.25;52.92;99371.00;10289268;28;20059;-74
2023/03/28 10:24:46;;;;;;;6.97;2.38;;;;;;;19.94;51.86;99354.34;10328000;28;20417;-74
2023/03/28 10:29:47;;;;;;;4.07;2.42;;;;;;;20.31;50.61;99411.06;10327426;28;20042;-75
2023/03/28 10:35:00;;;;;;;3.25;1.92;;;;;;;20.69;49.71;99368.81;10328287;28;20034;-74
2023/03/28 10:40:06;;;;;;;3.67;2.17;;;;;;;20.44;49.74;99390.97;10321540;28;20058;-76
2023/03/28 10:45:22;;;;;;;5.28;1.98;;;;;;;20.18;49.94;99361.06;10288264;28;20409;-74
2023/03/28 10:50:33;;;;;;;6.18;2.33;;;;;;;20.01;49.77;99363.88;10286889;28;20049;-74
2023/03/28 10:55:40;;;;;;;8.00;2.22;;;;;;;19.43;49.85;99271.03;10286720;28;20069;-75
2023/03/28 11:01:18;;;;;;;5.07;1.95;;;;;;;20.27;49.89;99370.31;10287061;28;20070;-74
2023/03/28 11:06:18;;;;;;;4.82;2.00;;;;;;;20.23;49.64;99361.13;10287971;28;20043;-75
2023/03/28 11:11:53;;;;;;;9.68;1.92;;;;;;;20.45;48.35;99357.53;10287436;28;20406;-74
2023/03/28 11:17:17;;;;;;;3.58;1.80;;;;;;;20.49;49.02;99337.88;10286506;28;20059;-74
2023/03/28 11:22:39;;;;;;;5.30;1.77;;;;;;;20.92;47.74;99314.44;10287410;28;20058;-75
2023/03/28 11:27:58;;;;;;;3.25;1.70;;;;;;;20.59;45.90;99233.84;10286932;28;20046;-75
2023/03/28 11:33:36;;;;;;;3.22;2.05;;;;;;;20.70;47.84;99332.66;10286788;28;20121;-76
2023/03/28 11:38:43;;;;;;;6.22;2.00;;;;;;;20.79;47.29;99320.31;10261780;28;20058;-75
2023/03/28 11:43:59;;;;;;;6.07;2.30;;;;;;;20.67;47.04;99257.59;10314315;28;20128;-74
2023/03/28 11:49:28;;;;;;;3.67;1.85;;;;;;;21.02;47.42;99302.06;10325984;28;20077;-75
2023/03/28 11:55:10;;;;;;;4.28;1.80;;;;;;;20.64;46.60;99231.16;10312741;28;20069;-75
2023/03/28 12:00:28;;;;;;;4.10;1.70;;;;;;;20.98;46.88;99302.59;10213690;28;20054;-77
2023/03/28 12:05:40;;;;;;;4.50;1.80;;;;;;;20.55;46.72;99254.28;10286700;28;20046;-75
2023/03/28 12:10:45;;;;;;;4.93;1.67;;;;;;;20.33;47.73;99274.06;10286393;28;20043;-76
2023/03/28 12:15:48;;;;;;;7.05;1.85;;;;;;;19.61;47.70;99135.19;10306755;28;20493;-74
2023/03/28 12:21:04;;;;;;;5.23;1.70;;;;;;;20.79;47.18;99262.81;10324564;28;20061;-76
2023/03/28 12:26:52;;;;;;;3.30;1.33;;;;;;;20.99;45.35;99254.81;10319987;28;20057;-74
2023/03/28 12:32:21;;;;;;;3.45;1.77;;;;;;;20.56;46.21;99189.28;10286422;28;20043;-76
2023/03/28 12:37:41;;;;;;;3.15;1.90;;;;;;;20.86;45.76;99183.22;10292407;28;20051;-75
2023/03/28 12:42:44;;;;;;;5.47;1.90;;;;;;;20.56;45.67;99180.41;10299028;28;20046;-75
2023/03/28 12:47:50;;;;;;;4.40;1.80;;;;;;;20.66;45.84;99240.59;10302930;28;20057;-74
2023/03/28 12:52:52;;;;;;;5.32;2.00;;;;;;;20.24;46.73;99209.03;10306516;28;20113;-72
2023/03/28 12:58:19;;;;;;;2.80;1.58;;;;;;;20.52;46.71;99240.28;10298466;28;20130;-76
2023/03/28 13:03:44;;;;;;;3.70;1.63;;;;;;;20.66;45.04;99235.22;10290043;28;20038;-76
2023/03/28 13:08:48;;;;;;;9.48;2.25;;;;;;;20.53;45.62;99227.59;10290762;28;20517;-76
2023/03/28 13:13:54;;;;;;;6.25;2.25;;;;;;;20.44;45.87;99221.84;10289738;28;20054;-76
2023/03/28 13:19:11;;;;;;;7.35;1.90;;;;;;;20.43;46.27;99238.25;10291639;28;20090;-76
2023/03/28 13:24:27;;;;;;;7.35;1.83;;;;;;;20.12;45.24;99169.84;10290569;28;20050;-75
2023/03/28 13:29:57;;;;;;;5.03;1.70;;;;;;;20.53;46.05;99235.69;10290733;28;20449;-75
2023/03/28 13:35:03;;;;;;;4.00;2.00;;;;;;;20.25;46.09;99210.66;10289320;28;20046;-75
2023/03/28 13:40:46;;;;;;;6.43;2.17;;;;;;;20.30;46.19;99237.66;10290565;28;20050;-75
2023/03/28 13:45:48;;;;;;;7.47;2.42;;;;;;;19.86;46.26;99203.88;10289896;28;20039;-76
2023/03/28 13:50:52;;;;;;;5.70;2.60;;;;;;;19.86;46.58;99199.28;10299015;28;20406;-80
2023/03/28 13:56:08;;;;;;;6.07;2.17;;;;;;;19.40;46.97;99118.03;10320863;28;20481;-80
2023/03/28 14:01:16;;;;;;;5.30;2.28;;;;;;;19.60;47.36;99174.00;10297358;28;20046;-80
2023/03/28 14:06:21;;;;;;;6.63;2.20;;;;;;;19.12;47.21;99108.38;10291842;28;20517;-79
2023/03/28 14:11:30;;;;;;;7.15;2.80;;;;;;;19.46;47.80;99187.03;10300356;28;20046;-80
2023/03/28 14:16:33;;;;;;;9.25;2.65;;;;;;;19.15;47.77;99149.03;10289547;28;20067;-80
2023/03/28 14:21:34;;;;;;;9.57;2.80;;;;;;;18.88;47.97;99129.38;10289719;28;20043;-80
2023/03/28 14:26:36;;;;;;;9.55;2.50;;;;;;;18.87;48.35;99155.44;10307238;28;20046;-80
2023/03/28 14:31:39;;;;;;;10.73;2.65;;;;;;;18.33;49.11;99109.56;10289143;28;20509;-81
2023/03/28 14:36:59;;;;;;;;;;;;;;;18.72;49.15;99187.50;10292205;28;20058;-79
2023/03/28 14:42:04;;;;;;;14.45;3.13;;;;;;;17.42;49.97;99060.66;10297018;28;20301;-80
2023/03/28 14:47:06;;;;;;;11.00;3.30;;;;;;;18.22;50.65;99209.97;10301690;28;20045;-81
2023/03/28 14:52:11;;;;;;;11.27;3.00;;;;;;;17.73;51.31;99159.44;10299759;28;20045;-80
2023/03/28 14:57:15;;;;;;;12.70;3.15;;;;;;;17.81;51.67;99205.81;10304189;28;20095;-80
2023/03/28 15:02:22;;;;;;;18.08;2.83;;;;;;;17.69;52.31;99222.75;10310897;28;20038;-81
2023/03/28 15:07:26;;;;;;;7.50;3.30;;;;;;;17.28;52.54;99175.56;10282345;28;20038;-80
2023/03/28 15:12:27;;;;;;;;;;;;;;;17.43;52.47;99202.69;10283266;28;20212;-80
2023/03/28 15:17:30;;;;;;;13.80;3.28;;;;;;;16.76;53.46;99164.91;10282510;28;19922;-80
2023/03/28 15:22:35;;;;;;;14.68;3.92;;;;;;;16.18;54.24;99099.56;10286973;28;20050;-83
2023/03/28 15:27:35;;;;;;;11.98;3.97;;;;;;;16.52;54.76;99181.00;10286912;28;20043;-82
2023/03/28 15:32:37;;;;;;;10.13;3.17;;;;;;;16.10;55.42;99153.53;10287639;28;20051;-82
2023/03/28 15:37:42;;;;;;;6.97;3.08;;;;;;;16.35;56.37;99231.81;10254787;28;20059;-80
2023/03/28 15:42:52;;;;;;;12.18;3.13;;;;;;;15.78;57.11;99150.38;10228954;28;20054;-84
2023/03/28 15:47:54;;;;;;;8.48;3.00;;;;;;;16.00;57.15;99209.53;10270834;28;20070;-79
2023/03/28 15:53:11;;;;;;;12.82;3.53;;;;;;;15.30;57.66;99133.34;10279530;28;20046;-85
2023/03/28 15:58:14;;;;;;;10.80;5.43;;;;;;;15.29;57.75;99158.50;10255406;28;20043;-80
2023/03/28 16:03:33;;;;;;;21.33;9.18;;;;;;;15.47;57.88;99219.16;10251618;28;20134;-77
2023/03/28 16:08:39;;;;;;;21.35;7.70;;;;;;;15.40;58.16;99239.84;10245178;28;20454;-79
2023/03/28 16:13:40;;;;;;;9.48;3.70;;;;;;;15.25;58.41;99237.56;10243676;28;20065;-77
2023/03/28 16:18:41;;;;;;;8.25;3.80;;;;;;;15.12;58.54;99248.44;10246894;28;20065;-82
2023/03/28 16:23:42;;;;;;;11.10;4.22;;;;;;;14.98;58.85;99240.53;10233826;28;20047;-78
2023/03/28 16:28:43;;;;;;;11.77;3.75;;;;;;;14.69;59.20;99220.75;10231907;29;20047;-78
2023/03/28 16:33:43;;;;;;;13.02;3.38;;;;;;;14.52;59.68;99225.03;10238465;29;20070;-82
2023/03/28 16:38:44;;;;;;;8.80;3.40;;;;;;;14.25;60.45;99200.38;10235889;28;20043;-82
2023/03/28 16:43:45;;;;;;;8.70;3.08;;;;;;;14.31;61.02;99236.91;10237765;28;20044;-87
2023/03/28 16:48:46;;;;;;;12.43;3.38;;;;;;;13.62;61.21;99153.25;10239163;28;20063;-87
2023/03/28 16:53:47;;;;;;;17.90;3.97;;;;;;;13.62;61.75;99179.94;10240386;28;20547;-79
2023/03/28 16:58:48;;;;;;;19.60;4.78;;;;;;;12.78;62.72;99067.22;10234896;28;21397;-79
2023/03/28 17:03:51;;;;;;;28.77;5.15;;;;;;;13.44;63.04;99207.38;10233234;28;20408;-81
2023/03/28 17:08:53;;;;;;;24.42;4.70;;;;;;;13.43;63.47;99219.03;10230664;28;20351;-79
2023/03/28 17:13:54;;;;;;;22.17;4.93;;;;;;;12.93;64.12;99154.88;10229390;28;20430;-84
2023/03/28 17:18:55;;;;;;;16.00;4.47;;;;;;;13.14;64.97;99215.09;10232732;28;20056;-82
2023/03/28 17:23:55;;;;;;;18.77;4.50;;;;;;;12.94;65.37;99199.16;10228689;28;20070;-83
2023/03/28 17:28:59;;;;;;;24.98;4.20;;;;;;;12.55;65.75;99175.09;10237329;29;20070;-90
2023/03/28 17:34:00;;;;;;;16.73;3.90;;;;;;;12.53;66.54;99185.16;10242619;29;20043;-81
2023/03/28 17:39:01;;;;;;;31.13;4.40;;;;;;;12.56;66.98;99207.88;10235351;28;20320;-82
2023/03/28 17:44:04;;;;;;;31.33;4.95;;;;;;;12.52;67.03;99220.00;10216356;29;20064;-87
2023/03/28 17:49:06;;;;;;;18.10;4.45;;;;;;;11.98;66.91;99136.69;10205028;28;20064;-80
2023/03/28 17:54:10;;;;;;;19.95;4.43;;;;;;;12.43;67.45;99197.25;10180965;29;20035;-79
2023/03/28 17:59:11;;;;;;;14.85;4.00;;;;;;;12.27;68.35;99188.69;10204119;29;20401;-79
2023/03/28 18:04:12;;;;;;;13.68;3.60;;;;;;;11.17;68.91;99036.66;10188244;29;20040;-78
2023/03/28 18:09:14;;;;;;;19.83;4.50;;;;;;;12.07;69.01;99203.84;10185757;29;20492;-79
2023/03/28 18:14:15;;;;;;;20.60;6.70;;;;;;;11.90;69.64;99165.38;10182769;29;20098;-79
2023/03/28 18:19:19;;;;;;;18.15;6.95;;;;;;;11.56;69.70;99111.31;10186170;29;20463;-78
2023/03/28 18:24:20;;;;;;;16.40;4.30;;;;;;;11.25;70.30;99072.84;10173461;29;20055;-79
2023/03/28 18:29:21;;;;;;;13.32;3.70;;;;;;;11.79;70.32;99188.88;10183655;29;20094;-78
2023/03/28 18:34:23;;;;;;;5.53;3.08;;;;;;;11.68;71.10;99188.69;10201908;29;20093;-82
2023/03/28 18:39:24;;;;;;;12.20;3.50;;;;;;;11.41;71.89;99168.16;10189443;29;20442;-79
2023/03/28 18:44:25;;;;;;;6.00;2.80;;;;;;;11.34;72.29;99172.66;10193316;29;20058;-79
2023/03/28 18:49:33;;;;;;;8.70;3.25;;;;;;;11.43;74.48;99198.03;10174736;29;20050;-79
2023/03/28 18:54:34;;;;;;;11.50;3.47;;;;;;;11.36;73.14;99213.16;10206335;29;20523;-80
2023/03/28 18:59:36;;;;;;;6.65;3.63;;;;;;;11.29;74.62;99203.53;10208471;29;20122;-78
2023/03/28 19:04:38;;;;;;;9.95;3.70;;;;;;;11.19;76.24;99196.75;10208110;29;20137;-80
2023/03/28 19:09:39;;;;;;;11.23;4.25;;;;;;;10.58;76.92;99114.38;10206239;29;20047;-80
2023/03/28 19:14:40;;;;;;;5.10;3.70;;;;;;;10.82;77.98;99166.16;10176487;29;20047;-80
2023/03/28 19:19:41;;;;;;;7.55;3.80;;;;;;;10.76;78.00;99151.00;10169053;29;20155;-79
2023/03/28 19:24:41;;;;;;;7.20;4.20;;;;;;;10.15;78.53;99058.00;10194295;28;20098;-79
2023/03/28 19:29:42;;;;;;;13.23;5.07;;;;;;;10.24;79.92;99091.31;10199906;29;20051;-81
2023/03/28 19:34:45;;;;;;;9.68;5.13;;;;;;;10.44;80.69;99129.44;10193073;29;20039;-82
2023/03/28 19:39:45;;;;;;;9.50;5.30;;;;;;;9.99;82.70;99070.56;10195758;29;20479;-83
2023/03/28 19:44:46;;;;;;;7.68;5.78;;;;;;;9.73;84.07;99036.75;10167953;29;20131;-82
2023/03/28 19:49:48;;;;;;;7.93;6.38;;;;;;;10.06;86.93;99090.00;10167412;29;20483;-86
2023/03/28 19:54:49;;;;;;;11.23;7.05;;;;;;;9.77;88.23;99045.13;10168234;29;20515;-81
2023/03/28 19:59:50;;;;;;;9.85;7.05;;;;;;;9.92;88.46;99082.97;10182034;29;20071;-80
2023/03/28 20:04:50;;;;;;;11.60;7.57;;;;;;;9.81;88.95;99079.03;10167253;29;20475;-81
2023/03/28 20:09:51;;;;;;;11.20;6.95;;;;;;;9.89;88.28;99103.75;10167172;29;20227;-81
2023/03/28 20:14:52;;;;;;;13.80;6.53;;;;;;;9.86;88.32;99093.53;10167732;29;20098;-81
2023/03/28 20:19:53;;;;;;;11.45;6.88;;;;;;;9.64;89.04;99063.63;10166735;29;20573;-82
2023/03/28 20:24:54;;;;;;;12.68;7.85;;;;;;;9.34;89.97;99027.50;10166952;29;20043;-81
2023/03/28 20:29:55;;;;;;;10.85;7.07;;;;;;;9.71;90.13;99093.63;10166619;29;20036;-81
2023/03/28 20:34:56;;;;;;;11.23;7.18;;;;;;;9.73;90.90;99091.63;10166174;29;20048;-81
2023/03/28 20:39:56;;;;;;;11.65;6.80;;;;;;;9.51;91.02;99067.81;10180851;29;20079;-80
2023/03/28 20:44:59;;;;;;;9.90;6.90;;;;;;;9.48;90.47;99065.53;10165971;29;20052;-81
2023/03/28 20:50:07;;;;;;;9.40;6.63;;;;;;;9.08;91.97;99011.38;10165750;29;20105;-80
2023/03/28 20:55:09;;;;;;;12.85;7.60;;;;;;;9.47;93.32;99085.09;10165677;29;20051;-82
2023/03/28 21:00:12;;;;;;;9.65;6.72;;;;;;;9.42;93.32;99110.53;10211051;28;20048;-83
2023/03/28 21:05:13;;;;;;;10.45;7.07;;;;;;;8.96;94.06;99045.50;10205600;29;20053;-83
2023/03/28 21:10:15;;;;;;;9.77;7.30;;;;;;;9.22;94.59;99107.72;10204478;29;20036;-83
2023/03/28 21:15:16;;;;;;;11.25;7.10;;;;;;;9.03;95.01;99094.06;10208321;29;20527;-82
2023/03/28 21:20:17;;;;;;;11.20;7.03;;;;;;;8.02;94.96;98960.81;10210535;29;20070;-82
2023/03/28 21:25:19;;;;;;;11.25;6.95;;;;;;;8.74;96.63;99078.28;10211927;29;20582;-82
2023/03/28 21:30:20;;;;;;;9.63;6.97;;;;;;;8.49;97.08;99069.84;10210996;29;20147;-81
2023/03/28 21:35:21;;;;;;;9.65;6.85;;;;;;;8.84;96.52;99121.16;10211169;29;20050;-81
2023/03/28 21:40:22;;;;;;;10.00;6.82;;;;;;;8.88;96.10;99133.03;10210799;29;20157;-81
2023/03/28 21:45:23;;;;;;;9.02;5.93;;;;;;;8.86;95.68;99146.47;10211081;29;20054;-80
2023/03/28 21:50:30;;;;;;;9.73;6.07;;;;;;;8.71;95.20;99113.09;10211507;29;20043;-82
2023/03/28 21:55:31;;;;;;;8.07;5.97;;;;;;;8.67;95.33;99145.22;10209909;29;20122;-82
2023/03/28 22:00:32;;;;;;;6.82;5.50;;;;;;;7.99;95.15;99035.22;10210244;29;20523;-81
2023/03/28 22:05:38;;;;;;;10.75;6.45;;;;;;;8.75;96.58;99168.13;10194028;29;20044;-81
2023/03/28 22:10:46;;;;;;;9.23;6.13;;;;;;;8.62;96.34;99167.97;10170930;29;20102;-81
2023/03/28 22:15:46;;;;;;;8.52;6.32;;;;;;;8.58;95.40;99172.78;10169315;29;20436;-81
2023/03/28 22:20:51;;;;;;;8.70;5.95;;;;;;;8.04;95.97;99146.56;10169859;29;20102;-81
2023/03/28 22:25:55;;;;;;;10.43;5.68;;;;;;;8.30;95.77;99219.38;10170315;29;20047;-82
2023/03/28 22:30:56;;;;;;;8.80;5.63;;;;;;;8.40;95.92;99249.06;10170394;29;20056;-82
2023/03/28 22:35:57;;;;;;;7.90;5.80;;;;;;;8.23;95.66;99241.28;10184623;28;20047;-82
2023/03/28 22:40:59;;;;;;;9.40;6.30;;;;;;;7.88;96.31;99211.00;10170134;29;20416;-82
2023/03/28 22:46:00;;;;;;;7.28;5.65;;;;;;;7.61;95.99;99180.66;10169811;29;20523;-81
2023/03/28 22:51:01;;;;;;;10.27;5.95;;;;;;;7.85;95.94;99200.78;10183673;29;20055;-81
2023/03/28 22:56:03;;;;;;;35.65;24.13;;;;;;;7.67;96.20;99158.00;10169366;29;20407;-83
2023/03/28 23:01:04;;;;;;;12.88;8.90;;;;;;;7.64;95.67;99138.00;10169562;29;20127;-82
2023/03/28 23:06:05;;;;;;;8.90;6.45;;;;;;;8.23;95.77;99225.41;10169091;28;20138;-83
2023/03/28 23:11:06;;;;;;;10.02;5.97;;;;;;;7.72;95.51;99111.53;10167130;29;20138;-82
2023/03/28 23:16:07;;;;;;;9.30;6.25;;;;;;;8.27;95.45;99202.03;10168157;29;20547;-81
2023/03/28 23:21:08;;;;;;;8.55;6.07;;;;;;;8.34;95.56;99210.06;10168073;29;20130;-81
2023/03/28 23:26:10;;;;;;;8.82;5.75;;;;;;;8.13;95.75;99198.38;10179196;29;20466;-82
2023/03/28 23:31:11;;;;;;;9.07;6.57;;;;;;;7.74;96.00;99157.06;10168168;29;20510;-82
2023/03/28 23:36:13;;;;;;;12.23;6.68;;;;;;;7.97;96.09;99235.56;10167738;29;20178;-82
2023/03/28 23:41:14;;;;;;;8.52;6.22;;;;;;;7.96;96.48;99244.50;10168567;29;20048;-82
2023/03/28 23:46:14;;;;;;;10.80;7.00;;;;;;;7.73;96.12;99210.97;10168382;29;20098;-82
2023/03/28 23:51:15;;;;;;;10.50;6.80;;;;;;;7.68;96.97;99215.13;10181712;29;20043;-83